Iwakuni Marine Corps Air Station
RJOI : now visible

Airfield :











YOU CAN JOIN US ON...

 
LOGIN :

Register | Disclaimer

   EN    FR    IT 

 









Legend :    VFR   Marginal VFR   IFR   Intensive IFR   Very Intensive IFR
Visi :
Ceiling :
>= 8 km
>= 3000ft
5 to 8 km
1000 to 3000 ft
1500m to 5 km
500 to 1000 ft
800 to 1500m
200 to 500 ft
< 800m
< 200 ft
Symbols :   Thunderstorms  Fog  Heavy snow  Heavy precipitations  Wind > 20 kt







- Airport Elevation : 7 ft


RJOI - Iwakuni Marine Corps Air Station

CURRENT METAR :
  • 190455Z 19005KT 3200 BR VCSH FEW005 BKN025 OVC040 26/24 A2981 RMK SHRAE0454 SLP093 VCSH ALQDS P0001 T02610244

EXPIRED METARs :
  • 190355Z 20003KT 3200 -SHRA BR FEW005 BKN025 OVC040 26/25 A2981 RMK SLP095 P0004 T02610250

TAF TAF RJOI
Valid from the 19 at 05:00 until the 20 at 05:00 UTC


1905/2005 VRB06KT 3200 -SHRA BR FEW005 SCT015 BKN025 OVC040 621603 QNH2975INS
TEMPO 1905/1910 4800 BR FEW005 SCT015 BKN030 OVC050
FM191000 VRB04KT 2400 -SHRA BR FEW005 SCT010 BKN020 OVC040 621603 QNH2977INS
FM191700 VRB04KT 1600 -SHRA BR SCT005 BKN015 OVC030 621605 QNH2975INS
FM192000 VRB05KT 1600 -SHRA BR SCT005 BKN010 FEW020CB OVC025 621609 QNH2976INS
FM192300 VRB06KT 1200 SHRA BR VCTS SCT004 BKN010 SCT020CB OVC025 621609 QNH2973INS
TEMPO 1923/2003 0800 +TSRA FG SCT004 BKN008 OVC015 SCT020CB T27/1905Z T25/1921Z
No reported NOTAMs for that airfield.



MET'MAP, your aeronautical weather chart ! - Copyright ORBIFLY December 2007 - Disclaimer

ORBIFLY MET'MAP TEAM :

Programming & Development : Alexandra Zaïnal
Concept & Development : Baudouin d'Aumeries
Co-Development & Prog : Marc-Olivier Méhu
Technical & hardware support : Manuel Goepfert

Contact : metmap@orbifly.com




SOURCES & CREDITS :

   NOAA       Earth
Advisory